Time;durP1;ratioP1;P1;durP2;ratioP2;P2;SDS_P1;SDS_P2;PMS_P1;PMS_P2;Temp;Humidity;BMP_temperature;BMP_pressure;BME280_temperature;BME280_humidity;BME280_pressure;Samples;Min_cycle;Max_cycle;Signal;HPM_P1;HPM_P2
2022/11/29 00:00:57;;;;;;;371.95;227.20;;;;;;;15.26;77.87;99003.09;4943984;28;20125;-60
2022/11/29 00:03:46;;;;;;;359.80;219.32;;;;;;;15.27;78.62;99006.63;4953993;28;20075;-59
2022/11/29 00:06:35;;;;;;;370.92;225.90;;;;;;;15.27;78.11;99009.34;4953765;28;20136;-60
2022/11/29 00:09:19;;;;;;;380.38;224.80;;;;;;;15.24;78.22;99001.69;4954440;28;20039;-60
2022/11/29 00:12:11;;;;;;;374.80;224.35;;;;;;;15.40;77.80;98998.25;4950514;28;20050;-59
2022/11/29 00:15:00;;;;;;;366.48;222.43;;;;;;;15.39;78.09;98993.91;4951254;28;20047;-59
2022/11/29 00:17:42;;;;;;;378.92;227.52;;;;;;;15.29;77.45;99009.09;4946685;28;20126;-59
2022/11/29 00:20:32;;;;;;;365.02;218.82;;;;;;;15.28;78.28;99013.66;4944034;28;20055;-60
2022/11/29 00:23:13;;;;;;;378.15;224.80;;;;;;;15.42;77.74;99012.38;4953933;28;20053;-61
2022/11/29 00:26:12;;;;;;;363.90;221.02;;;;;;;15.48;77.70;99018.72;4950864;28;20098;-60
2022/11/29 00:28:54;;;;;;;375.63;222.40;;;;;;;15.46;76.56;99021.66;4952061;28;20059;-60
2022/11/29 00:31:45;;;;;;;362.50;216.65;;;;;;;15.32;77.53;99024.84;4938623;28;20102;-59
2022/11/29 00:34:28;;;;;;;370.27;227.90;;;;;;;15.23;77.55;99027.09;4951085;28;20058;-59
2022/11/29 00:37:17;;;;;;;373.73;226.88;;;;;;;15.21;77.90;99029.19;4949991;28;20070;-59
2022/11/29 00:39:58;;;;;;;378.02;229.70;;;;;;;15.17;78.52;99030.72;4952199;28;20047;-59
2022/11/29 00:42:48;;;;;;;378.10;227.45;;;;;;;15.22;77.79;99030.84;4953591;28;20114;-60
2022/11/29 00:45:29;;;;;;;376.73;227.88;;;;;;;15.26;77.77;99037.41;4955246;28;20057;-60
2022/11/29 00:48:18;;;;;;;394.30;229.13;;;;;;;15.10;78.23;99032.75;4958100;28;20051;-60
2022/11/29 00:51:01;;;;;;;384.73;232.75;;;;;;;15.06;78.49;99033.22;4954443;28;20050;-59
2022/11/29 00:53:51;;;;;;;376.92;221.88;;;;;;;15.23;78.33;99037.91;4955513;28;20066;-59
2022/11/29 00:56:32;;;;;;;382.58;228.93;;;;;;;15.27;78.16;99036.38;4954671;28;20150;-59
2022/11/29 00:59:22;;;;;;;387.75;223.70;;;;;;;15.34;78.06;99045.16;4953029;28;20142;-59
2022/11/29 01:02:03;;;;;;;380.15;228.55;;;;;;;15.32;77.31;99041.88;4949470;28;20051;-59
2022/11/29 01:04:58;;;;;;;376.20;225.35;;;;;;;15.21;77.72;99043.56;4952514;28;20043;-59
2022/11/29 01:07:48;;;;;;;374.88;224.82;;;;;;;15.15;78.04;99040.94;4954076;28;20061;-59
2022/11/29 01:10:38;;;;;;;372.48;224.85;;;;;;;15.20;78.35;99038.38;4949401;28;20055;-60
2022/11/29 01:13:19;;;;;;;374.75;225.10;;;;;;;15.22;78.17;99047.06;4948726;28;20075;-59
2022/11/29 01:16:10;;;;;;;382.45;224.75;;;;;;;15.19;77.94;99040.25;4946809;28;20077;-60
2022/11/29 01:18:52;;;;;;;372.90;217.07;;;;;;;15.18;78.25;99052.13;4953456;28;20058;-60
2022/11/29 01:21:40;;;;;;;365.73;220.93;;;;;;;15.10;77.97;99055.19;4948323;28;20059;-60
2022/11/29 01:24:22;;;;;;;371.00;225.55;;;;;;;15.08;78.69;99063.53;4947806;28;20059;-59
2022/11/29 01:27:11;;;;;;;379.48;221.45;;;;;;;15.12;78.41;99066.59;4956049;28;20051;-60
2022/11/29 01:29:53;;;;;;;371.67;224.15;;;;;;;15.15;78.26;99071.53;4956728;28;20051;-61
2022/11/29 01:32:43;;;;;;;380.13;224.15;;;;;;;15.21;77.70;99067.88;4941457;28;20515;-59
2022/11/29 01:35:25;;;;;;;371.87;222.13;;;;;;;15.15;78.29;99073.38;4953926;28;20059;-59
2022/11/29 01:38:15;;;;;;;371.20;223.68;;;;;;;15.08;78.32;99074.34;4968378;28;20764;-59
2022/11/29 01:41:05;;;;;;;356.80;220.65;;;;;;;15.07;78.25;99080.81;4968555;28;20051;-59
2022/11/29 01:44:21;;;;;;;374.80;226.55;;;;;;;15.00;77.69;99076.56;4967424;28;20138;-61
2022/11/29 01:47:04;;;;;;;353.15;213.25;;;;;;;14.91;78.14;99077.97;4940799;29;20039;-60
2022/11/29 01:49:56;;;;;;;374.67;220.93;;;;;;;14.82;78.60;99085.59;4959973;28;20458;-61
2022/11/29 01:52:38;;;;;;;374.45;220.13;;;;;;;14.80;78.74;99085.81;4957893;28;20051;-59
2022/11/29 01:55:27;;;;;;;378.40;220.70;;;;;;;14.81;78.82;99089.38;4954890;28;20079;-59
2022/11/29 01:58:09;;;;;;;375.73;219.50;;;;;;;14.81;78.16;99083.97;4955700;28;20078;-60
2022/11/29 02:00:57;;;;;;;371.33;219.07;;;;;;;14.66;78.38;99090.59;4957436;28;20055;-59
2022/11/29 02:03:46;;;;;;;383.67;222.13;;;;;;;14.65;78.70;99097.06;4956741;28;20043;-60
2022/11/29 02:06:36;;;;;;;364.50;214.63;;;;;;;14.68;78.80;99104.72;4957372;28;20404;-59
2022/11/29 02:09:27;;;;;;;383.52;219.57;;;;;;;14.86;79.08;99097.56;4946393;29;20521;-59
2022/11/29 02:13:05;;;;;;;371.52;217.52;;;;;;;14.92;77.69;99102.03;4947458;28;20498;-60
2022/11/29 02:16:14;;;;;;;376.77;219.20;;;;;;;14.79;78.46;99102.25;4871350;29;20200;-60
2022/11/29 02:19:10;;;;;;;388.67;224.65;;;;;;;15.03;78.55;99119.34;4879147;29;20055;-60
2022/11/29 02:22:17;;;;;;;378.48;220.38;;;;;;;15.11;78.13;99116.28;4967382;28;20121;-60
2022/11/29 02:25:40;;;;;;;381.58;222.27;;;;;;;15.12;77.89;99119.84;4950942;28;20051;-60
2022/11/29 02:28:29;;;;;;;376.33;220.95;;;;;;;15.20;78.91;99122.19;4948022;28;20055;-60
2022/11/29 02:31:32;;;;;;;383.60;225.02;;;;;;;15.40;77.84;99125.38;4967382;28;20046;-59
2022/11/29 02:34:46;;;;;;;394.08;229.95;;;;;;;15.45;77.56;99130.06;4966589;28;20836;-59
2022/11/29 02:37:55;;;;;;;396.23;230.52;;;;;;;15.58;78.10;99131.72;4967619;28;20404;-59
2022/11/29 02:40:55;;;;;;;392.63;230.80;;;;;;;15.72;77.39;99133.09;4967154;28;20051;-59
2022/11/29 02:44:27;;;;;;;378.95;225.15;;;;;;;15.87;76.20;99137.25;4967134;28;20051;-59
2022/11/29 02:47:45;;;;;;;394.65;229.75;;;;;;;15.83;77.70;99145.81;4927539;29;20118;-61
2022/11/29 02:51:15;;;;;;;393.90;232.95;;;;;;;16.02;77.78;99146.50;4883479;29;20052;-60
2022/11/29 02:54:07;;;;;;;402.55;233.60;;;;;;;16.06;77.58;99149.56;4899901;29;20148;-59
2022/11/29 02:57:06;;;;;;;411.70;237.15;;;;;;;16.21;76.48;99155.28;4964319;28;20606;-60
2022/11/29 03:00:10;;;;;;;401.77;238.88;;;;;;;16.25;77.20;99163.75;4966487;28;20064;-60
2022/11/29 03:03:39;;;;;;;418.08;243.05;;;;;;;16.42;77.12;99161.09;4944542;29;20082;-62
2022/11/29 03:06:56;;;;;;;417.95;241.48;;;;;;;16.45;77.04;99160.59;4933057;28;20047;-60
2022/11/29 03:10:02;;;;;;;413.95;240.02;;;;;;;16.68;77.43;99164.28;4928725;29;20506;-62
2022/11/29 03:12:47;;;;;;;427.38;249.38;;;;;;;16.85;76.73;99172.50;4928644;29;20051;-60
2022/11/29 03:15:38;;;;;;;446.67;261.23;;;;;;;16.97;76.95;99182.22;4935185;28;20047;-61
2022/11/29 03:18:58;;;;;;;438.63;261.20;;;;;;;17.22;76.46;99176.41;4911640;29;20712;-60
2022/11/29 03:21:46;;;;;;;446.77;267.73;;;;;;;17.48;76.01;99175.97;4928727;29;20499;-62
2022/11/29 03:25:07;;;;;;;439.83;260.15;;;;;;;17.84;75.20;99195.50;4928663;29;20151;-60
2022/11/29 03:27:54;;;;;;;;;;;;;;;18.32;74.00;99192.13;4944940;28;20521;-61
2022/11/29 03:30:56;;;;;;;435.73;259.85;;;;;;;18.75;72.32;99189.63;4932714;29;19954;-62
2022/11/29 03:34:00;;;;;;;418.85;253.25;;;;;;;19.09;71.46;99200.31;4923862;29;20135;-60
2022/11/29 03:37:05;;;;;;;423.13;254.50;;;;;;;19.31;70.56;99209.19;4926084;29;20083;-61
2022/11/29 03:40:01;;;;;;;421.73;250.85;;;;;;;19.56;70.99;99216.75;4939050;28;20055;-62
2022/11/29 03:43:10;;;;;;;426.83;253.20;;;;;;;19.86;69.57;99220.00;4918430;29;20062;-60
2022/11/29 03:46:21;;;;;;;401.02;242.25;;;;;;;20.27;68.85;99220.22;4928765;29;20043;-62
2022/11/29 03:49:20;;;;;;;376.88;230.38;;;;;;;20.52;68.18;99224.94;4929502;29;20079;-59
2022/11/29 03:52:27;;;;;;;354.25;220.35;;;;;;;20.73;67.05;99234.06;4917491;29;20051;-59
2022/11/29 03:55:39;;;;;;;332.95;200.55;;;;;;;20.97;63.20;99239.06;4947251;28;20857;-62
2022/11/29 03:59:04;;;;;;;321.30;199.07;;;;;;;21.29;65.05;99241.56;4932333;28;20552;-62
2022/11/29 04:02:27;;;;;;;323.60;197.13;;;;;;;21.62;64.44;99248.41;4941481;28;20378;-60
2022/11/29 04:05:34;;;;;;;302.50;183.60;;;;;;;21.73;63.08;99251.97;4934393;28;20127;-61
2022/11/29 04:08:49;;;;;;;286.85;169.63;;;;;;;21.70;62.51;99264.25;4939546;29;20349;-62
2022/11/29 04:12:14;;;;;;;272.02;165.68;;;;;;;22.24;59.48;99259.25;4964267;28;20038;-60
2022/11/29 04:15:39;;;;;;;267.85;161.00;;;;;;;22.42;60.82;99266.88;4912078;29;20051;-61
2022/11/29 04:18:42;;;;;;;259.38;156.82;;;;;;;22.37;59.53;99272.38;4930238;29;20551;-60
2022/11/29 04:22:01;;;;;;;250.77;150.05;;;;;;;22.58;60.83;99273.13;4947373;28;20055;-60
2022/11/29 04:25:22;;;;;;;255.13;150.75;;;;;;;22.50;59.84;99278.34;4948415;28;20134;-61
2022/11/29 04:28:42;;;;;;;230.82;139.75;;;;;;;22.71;58.46;99279.91;4949855;28;20411;-60
2022/11/29 04:32:22;;;;;;;238.48;134.73;;;;;;;22.42;59.40;99286.03;4939952;29;20055;-60
2022/11/29 04:35:18;;;;;;;224.02;130.48;;;;;;;22.70;60.06;99289.22;4889345;29;20044;-60
2022/11/29 04:38:45;;;;;;;213.30;128.27;;;;;;;22.80;60.16;99283.69;4887724;29;20072;-59
2022/11/29 04:41:45;;;;;;;205.32;123.78;;;;;;;23.06;59.39;99292.66;4949007;28;20142;-58
2022/11/29 04:45:06;;;;;;;202.30;115.22;;;;;;;22.91;58.94;99297.31;4948409;29;20110;-61
2022/11/29 04:47:50;;;;;;;197.82;116.07;;;;;;;22.90;60.10;99302.00;4951622;28;20047;-59
2022/11/29 04:51:07;;;;;;;191.05;111.80;;;;;;;22.88;55.85;99299.53;4951802;28;20502;-59
2022/11/29 04:53:57;;;;;;;183.35;112.47;;;;;;;22.98;58.97;99298.66;4945869;29;20043;-56
2022/11/29 04:57:13;;;;;;;181.52;109.47;;;;;;;22.71;59.17;99292.78;4958207;28;20053;-58
2022/11/29 05:00:01;;;;;;;177.82;107.28;;;;;;;23.03;58.79;99295.94;4930100;29;20544;-58
2022/11/29 05:03:10;;;;;;;188.02;105.43;;;;;;;23.14;56.41;99296.72;4940268;28;20725;-60
2022/11/29 05:06:10;;;;;;;172.45;104.22;;;;;;;23.19;55.03;99288.44;4945223;28;20043;-58
2022/11/29 05:09:33;;;;;;;172.43;98.75;;;;;;;23.55;54.69;99296.41;4940676;28;20126;-59
2022/11/29 05:12:30;;;;;;;163.10;99.22;;;;;;;23.70;55.19;99297.41;4944057;28;20051;-61
2022/11/29 05:15:56;;;;;;;171.95;99.20;;;;;;;23.93;53.59;99288.47;4949445;28;20069;-59
2022/11/29 05:19:13;;;;;;;165.13;101.55;;;;;;;23.42;54.05;99275.97;4948657;28;20043;-61
2022/11/29 05:22:28;;;;;;;164.50;98.60;;;;;;;23.07;57.70;99285.25;4947026;28;20133;-61
2022/11/29 05:25:37;;;;;;;173.82;103.28;;;;;;;23.74;53.21;99282.03;4942897;28;20407;-59
2022/11/29 05:28:32;;;;;;;171.88;100.03;;;;;;;24.05;52.79;99279.84;4937399;28;20491;-59
2022/11/29 05:31:29;;;;;;;178.63;101.03;;;;;;;23.89;55.27;99279.19;4936130;29;20063;-59
2022/11/29 05:34:18;;;;;;;166.55;101.53;;;;;;;23.81;54.88;99277.06;4952739;28;20432;-60
2022/11/29 05:37:27;;;;;;;183.82;107.05;;;;;;;23.30;53.73;99270.03;4904808;28;20047;-59
2022/11/29 05:40:35;;;;;;;203.73;116.85;;;;;;;24.18;54.66;99273.69;4941262;28;20129;-54
2022/11/29 05:43:32;;;;;;;200.95;118.45;;;;;;;23.98;54.58;99273.88;4943370;28;20376;-57
2022/11/29 05:46:41;;;;;;;191.25;110.85;;;;;;;24.46;51.70;99270.38;4940644;28;20053;-58
2022/11/29 05:49:34;;;;;;;203.73;114.43;;;;;;;23.98;51.88;99276.63;4940861;28;20101;-61
2022/11/29 05:52:29;;;;;;;193.90;111.70;;;;;;;24.54;51.45;99272.50;4944395;28;20145;-60
2022/11/29 05:55:40;;;;;;;187.80;107.88;;;;;;;24.38;51.04;99260.84;4946835;29;20207;-59
2022/11/29 05:58:51;;;;;;;190.23;109.68;;;;;;;24.78;51.16;99262.34;4941950;28;20607;-58
2022/11/29 06:01:39;;;;;;;192.93;111.97;;;;;;;24.27;50.44;99256.59;4943596;28;20035;-58
2022/11/29 06:04:37;;;;;;;193.73;111.82;;;;;;;24.56;56.05;99256.56;4942282;28;20059;-59
2022/11/29 06:07:37;;;;;;;197.32;114.47;;;;;;;24.41;53.80;99258.34;4946098;28;20491;-56
2022/11/29 06:10:31;;;;;;;197.10;110.03;;;;;;;24.55;54.00;99252.19;4945900;29;20063;-57
2022/11/29 06:13:59;;;;;;;195.10;111.50;;;;;;;25.02;51.10;99244.97;4946086;28;20150;-57
2022/11/29 06:16:49;;;;;;;210.80;114.97;;;;;;;24.80;51.53;99243.63;4965025;28;20042;-59
2022/11/29 06:19:44;;;;;;;210.95;119.63;;;;;;;24.32;49.04;99248.31;4948939;28;20150;-59
2022/11/29 06:23:00;;;;;;;211.57;121.28;;;;;;;24.79;53.81;99235.69;4946549;28;20094;-59
2022/11/29 06:26:02;;;;;;;201.52;116.38;;;;;;;24.87;50.29;99236.97;4947174;29;20142;-59
2022/11/29 06:29:00;;;;;;;209.25;118.05;;;;;;;24.87;50.91;99234.22;4945794;29;20051;-60
2022/11/29 06:31:51;;;;;;;217.52;119.13;;;;;;;24.85;49.96;99228.19;4946432;29;20141;-56
2022/11/29 06:35:12;;;;;;;207.35;117.55;;;;;;;24.98;51.19;99217.28;4943004;28;20054;-56
2022/11/29 06:37:57;;;;;;;221.68;124.88;;;;;;;24.97;49.58;99215.66;4965206;28;20117;-61
2022/11/29 06:40:45;;;;;;;204.93;119.60;;;;;;;24.97;48.93;99203.84;4964632;28;20739;-60
2022/11/29 06:43:28;;;;;;;218.20;122.82;;;;;;;24.96;50.14;99210.47;4965043;28;20835;-64
2022/11/29 06:46:32;;;;;;;215.40;123.97;;;;;;;24.97;52.79;99210.19;4935214;28;20058;-61
2022/11/29 06:49:26;;;;;;;224.30;126.10;;;;;;;25.03;52.66;99202.69;4946523;28;20502;-61
2022/11/29 06:52:38;;;;;;;238.27;133.40;;;;;;;24.89;52.96;99190.81;4943091;28;20054;-61
2022/11/29 06:55:27;;;;;;;256.70;141.35;;;;;;;25.11;49.68;99199.25;4928651;28;20535;-61
2022/11/29 06:58:18;;;;;;;269.25;141.98;;;;;;;25.01;52.11;99192.00;4946257;28;20118;-61
2022/11/29 07:01:42;;;;;;;271.52;147.63;;;;;;;24.87;49.11;99176.56;4946730;28;20051;-60
2022/11/29 07:04:46;;;;;;;270.45;144.07;;;;;;;25.00;50.55;99176.63;4947368;28;20807;-61
2022/11/29 07:07:30;;;;;;;264.17;149.55;;;;;;;24.94;52.04;99177.81;4946862;28;20090;-61
2022/11/29 07:10:23;;;;;;;291.85;164.45;;;;;;;24.89;53.34;99168.84;4954975;28;20051;-61
2022/11/29 07:13:13;;;;;;;313.60;168.82;;;;;;;24.91;52.49;99167.41;4943123;28;20050;-59
2022/11/29 07:16:07;;;;;;;330.75;183.95;;;;;;;25.03;51.80;99161.50;4948192;28;20126;-60
2022/11/29 07:19:05;;;;;;;341.25;185.10;;;;;;;25.09;51.82;99157.53;4928977;28;20384;-61
2022/11/29 07:22:14;;;;;;;339.08;191.82;;;;;;;24.99;52.66;99157.69;4945570;29;20094;-62
2022/11/29 07:25:09;;;;;;;362.73;197.73;;;;;;;24.90;51.04;99154.81;4957430;28;20057;-61
2022/11/29 07:28:02;;;;;;;369.65;208.07;;;;;;;24.85;52.38;99149.41;4962185;28;20046;-61
2022/11/29 07:31:06;;;;;;;358.98;209.70;;;;;;;24.96;52.67;99147.31;4949698;28;20070;-60
2022/11/29 07:34:14;;;;;;;349.58;208.32;;;;;;;24.87;52.05;99140.88;4952928;28;20135;-63
2022/11/29 07:37:32;;;;;;;371.58;205.60;;;;;;;24.80;49.66;99133.00;4945065;29;20047;-61
2022/11/29 07:40:24;;;;;;;368.52;200.73;;;;;;;24.92;52.90;99135.31;4942022;28;20154;-61
2022/11/29 07:43:29;;;;;;;345.50;183.82;;;;;;;24.77;50.85;99134.41;4943882;29;20149;-61
2022/11/29 07:46:11;;;;;;;316.00;168.95;;;;;;;24.72;51.45;99128.19;4956452;28;20051;-62
2022/11/29 07:49:00;;;;;;;354.52;182.00;;;;;;;24.63;50.65;99130.81;4964158;28;20434;-61
2022/11/29 07:51:42;;;;;;;314.10;166.98;;;;;;;24.65;51.57;99123.09;4966052;28;20050;-61
2022/11/29 07:54:32;;;;;;;297.52;148.45;;;;;;;24.85;49.79;99121.13;4967659;28;20061;-61
2022/11/29 07:57:13;;;;;;;267.30;145.80;;;;;;;24.86;51.12;99104.38;4968768;28;20061;-61
2022/11/29 08:00:04;;;;;;;242.52;134.30;;;;;;;24.82;50.77;99100.56;4951165;28;20766;-61
2022/11/29 08:02:47;;;;;;;246.38;129.85;;;;;;;24.80;50.24;99100.88;4954346;28;20133;-61
2022/11/29 08:05:44;;;;;;;208.82;118.72;;;;;;;24.91;50.59;99095.22;4949051;28;20134;-60
2022/11/29 08:08:20;;;;;;;212.85;116.68;;;;;;;24.87;51.37;99088.72;4937202;29;20066;-60
2022/11/29 08:11:17;;;;;;;192.55;107.88;;;;;;;24.78;49.93;99092.16;4957064;28;20105;-63
2022/11/29 08:14:01;;;;;;;185.35;103.55;;;;;;;24.74;51.94;99091.09;4968870;28;20105;-61
2022/11/29 08:16:49;;;;;;;171.43;95.80;;;;;;;24.78;51.68;99088.56;4955632;28;20059;-61
2022/11/29 08:19:38;;;;;;;168.68;91.85;;;;;;;24.77;51.80;99084.19;4948831;29;20759;-62
2022/11/29 08:22:21;;;;;;;153.20;87.65;;;;;;;24.85;49.03;99088.19;4963472;28;20412;-60
2022/11/29 08:25:11;;;;;;;152.93;82.95;;;;;;;24.91;50.22;99084.25;4968034;28;20051;-61
2022/11/29 08:27:54;;;;;;;158.70;84.00;;;;;;;24.96;51.27;99086.91;4968288;28;20514;-61
2022/11/29 08:30:43;;;;;;;156.40;83.60;;;;;;;24.96;47.97;99081.41;4968402;28;20050;-60
2022/11/29 08:33:37;;;;;;;149.35;81.70;;;;;;;25.13;48.15;99075.38;4968236;28;20102;-60
2022/11/29 08:36:22;;;;;;;140.65;79.75;;;;;;;25.06;48.81;99075.75;4967947;28;20170;-61
2022/11/29 08:39:11;;;;;;;135.63;77.00;;;;;;;24.99;48.94;99069.81;4967910;28;20659;-60
2022/11/29 08:42:00;;;;;;;130.98;76.05;;;;;;;25.11;49.65;99066.63;4968094;28;20042;-60
2022/11/29 08:44:49;;;;;;;125.75;72.80;;;;;;;25.06;49.26;99058.47;4967778;28;20090;-60
2022/11/29 08:47:34;;;;;;;122.90;72.40;;;;;;;25.05;49.49;99057.66;4967126;28;20046;-61
2022/11/29 08:50:29;;;;;;;119.90;71.85;;;;;;;25.03;49.82;99051.66;4929701;29;20067;-63
2022/11/29 08:56:20;;;;;;;119.55;72.68;;;;;;;25.18;48.79;99045.88;4947489;29;20340;-60
2022/11/29 08:59:29;;;;;;;118.25;70.75;;;;;;;25.16;49.04;99047.28;4948554;28;20154;-61
2022/11/29 09:02:18;;;;;;;121.68;70.68;;;;;;;24.95;47.33;99046.84;4949785;28;20059;-61
2022/11/29 09:05:15;;;;;;;116.68;70.43;;;;;;;25.16;48.40;99042.59;4946431;28;20861;-64
2022/11/29 09:08:04;;;;;;;126.70;73.40;;;;;;;25.23;48.59;99035.94;4968504;28;20141;-61
2022/11/29 09:10:53;;;;;;;116.95;73.18;;;;;;;25.23;48.87;99033.22;4967779;28;20594;-63
2022/11/29 09:13:35;;;;;;;130.45;76.53;;;;;;;25.15;49.52;99035.50;4967887;28;20050;-62
2022/11/29 09:16:27;;;;;;;125.30;74.95;;;;;;;25.09;49.67;99036.72;4968049;28;20061;-63
2022/11/29 09:19:12;;;;;;;128.18;77.18;;;;;;;25.04;49.06;99033.25;4968080;28;20076;-61
2022/11/29 09:22:02;;;;;;;128.52;75.72;;;;;;;24.91;48.09;99032.09;4967353;28;20039;-62
2022/11/29 09:24:45;;;;;;;140.32;76.85;;;;;;;25.04;49.00;99023.06;4967651;28;20158;-62
2022/11/29 09:27:34;;;;;;;137.00;77.80;;;;;;;25.05;48.09;99018.38;4966330;28;20047;-62
2022/11/29 09:30:17;;;;;;;146.23;78.95;;;;;;;24.93;48.92;99013.38;4946402;29;20055;-63
2022/11/29 09:33:06;;;;;;;147.95;77.63;;;;;;;24.96;48.79;99013.59;4948372;29;20475;-63
2022/11/29 09:35:48;;;;;;;129.57;73.63;;;;;;;24.97;48.85;99014.41;4929791;29;20056;-61
2022/11/29 09:38:38;;;;;;;128.82;72.93;;;;;;;24.98;48.76;99007.81;4946872;29;20054;-62
2022/11/29 09:41:32;;;;;;;128.65;73.43;;;;;;;25.01;49.10;99012.66;4962718;28;20070;-61
2022/11/29 09:44:36;;;;;;;143.00;77.47;;;;;;;24.75;49.06;99010.38;4965594;28;20055;-62
2022/11/29 09:47:56;;;;;;;137.80;79.20;;;;;;;24.93;49.70;99005.13;4956034;28;20075;-61
2022/11/29 09:50:57;;;;;;;145.13;80.93;;;;;;;24.79;50.95;99005.13;4948587;28;20134;-61
2022/11/29 09:53:45;;;;;;;157.05;83.32;;;;;;;24.78;50.43;99004.31;4948393;28;20059;-62
2022/11/29 09:56:44;;;;;;;148.25;81.70;;;;;;;24.75;50.24;98998.59;4951848;28;20050;-62
2022/11/29 09:59:42;;;;;;;148.00;80.30;;;;;;;24.74;50.39;99006.00;4928938;29;20061;-62
2022/11/29 10:02:44;;;;;;;146.77;80.65;;;;;;;24.76;50.67;99001.06;4942099;29;20047;-61
2022/11/29 10:05:46;;;;;;;140.70;77.65;;;;;;;24.67;51.68;99002.84;4948772;28;20098;-61
2022/11/29 10:08:45;;;;;;;148.38;77.95;;;;;;;24.70;50.80;98996.75;4930543;29;20067;-61
2022/11/29 10:11:52;;;;;;;150.77;82.70;;;;;;;24.80;51.23;99002.06;4942994;29;20051;-61
2022/11/29 10:14:50;;;;;;;148.45;78.47;;;;;;;24.89;51.12;98993.13;4930892;28;20472;-59
2022/11/29 10:17:48;;;;;;;141.57;79.82;;;;;;;24.84;51.86;98991.31;4959359;28;20051;-62
2022/11/29 10:20:44;;;;;;;141.25;79.20;;;;;;;24.76;52.52;98989.22;4948169;28;20117;-63
2022/11/29 10:23:52;;;;;;;148.73;79.15;;;;;;;24.68;52.93;98988.00;4928832;29;20074;-62
2022/11/29 10:26:42;;;;;;;135.70;76.32;;;;;;;24.65;53.02;98983.13;4932815;29;20134;-61
2022/11/29 10:29:25;;;;;;;153.27;79.70;;;;;;;24.59;53.53;98984.31;4948030;29;20047;-62
2022/11/29 10:32:20;;;;;;;131.48;76.55;;;;;;;24.54;53.49;98987.16;4941517;28;20795;-61
2022/11/29 10:35:11;;;;;;;143.18;79.93;;;;;;;24.46;54.54;98979.56;4954709;28;20065;-62
2022/11/29 10:38:18;;;;;;;141.48;79.05;;;;;;;24.37;54.90;98972.00;4957001;28;20050;-62
2022/11/29 10:41:22;;;;;;;136.82;78.72;;;;;;;24.34;54.55;98978.13;4958066;28;20046;-63
2022/11/29 10:44:11;;;;;;;143.75;78.25;;;;;;;24.27;55.07;98974.09;4929006;29;20071;-64
2022/11/29 10:46:54;;;;;;;141.52;79.55;;;;;;;24.16;56.24;98970.72;4933855;29;20051;-63
2022/11/29 10:49:50;;;;;;;130.07;76.75;;;;;;;24.09;55.17;98975.75;4947652;29;20664;-61
2022/11/29 10:52:33;;;;;;;129.23;77.07;;;;;;;24.11;55.59;98965.28;4964115;28;20059;-61
2022/11/29 10:55:23;;;;;;;132.80;75.50;;;;;;;24.03;56.43;98958.56;4966763;28;20398;-61
2022/11/29 10:58:27;;;;;;;135.38;76.68;;;;;;;24.06;56.80;98957.97;4966813;28;20121;-61
2022/11/29 11:01:20;;;;;;;138.57;75.53;;;;;;;23.97;56.78;98962.47;4934188;28;20122;-62
2022/11/29 11:04:49;;;;;;;142.35;79.13;;;;;;;23.91;57.42;98958.19;4948084;28;20054;-63
2022/11/29 11:07:38;;;;;;;131.55;74.20;;;;;;;23.80;57.72;98968.47;4954134;28;20707;-63
2022/11/29 11:10:33;;;;;;;136.77;79.40;;;;;;;23.73;58.37;98968.81;4965957;28;20404;-62
2022/11/29 11:13:25;;;;;;;152.90;81.82;;;;;;;23.59;58.83;98968.72;4927978;29;20044;-62
2022/11/29 11:16:26;;;;;;;148.68;81.25;;;;;;;23.50;59.20;98969.66;4956961;28;20047;-64
2022/11/29 11:19:33;;;;;;;147.32;84.45;;;;;;;23.46;59.25;98972.16;4955487;28;21347;-62
2022/11/29 11:22:27;;;;;;;147.82;79.68;;;;;;;23.38;59.44;98973.63;4954375;28;20050;-60
2022/11/29 11:25:34;;;;;;;146.18;82.82;;;;;;;23.38;60.45;98968.16;4955498;28;20063;-61
2022/11/29 11:28:30;;;;;;;150.68;85.20;;;;;;;23.20;60.79;98972.47;4948630;28;20066;-61
2022/11/29 11:31:13;;;;;;;144.00;84.20;;;;;;;23.13;61.12;98980.22;4942305;29;20093;-61
2022/11/29 11:34:02;;;;;;;153.45;86.97;;;;;;;22.97;61.25;98973.25;4944733;28;20051;-61
2022/11/29 11:36:43;;;;;;;162.93;84.50;;;;;;;22.85;61.88;98974.44;4941176;28;20071;-62
2022/11/29 11:39:33;;;;;;;154.07;84.78;;;;;;;22.84;61.62;98982.94;4942796;28;20613;-62
2022/11/29 11:42:37;;;;;;;142.60;84.70;;;;;;;22.67;62.44;98981.44;4937823;29;20537;-61
2022/11/29 11:45:33;;;;;;;160.30;87.53;;;;;;;22.66;62.25;98985.28;4928473;28;20072;-62
2022/11/29 11:48:23;;;;;;;152.32;88.85;;;;;;;22.55;62.72;98977.47;4956701;28;20062;-61
2022/11/29 11:51:07;;;;;;;154.90;90.63;;;;;;;22.44;63.03;98974.81;4937268;29;20051;-61
2022/11/29 11:54:02;;;;;;;169.43;88.90;;;;;;;22.37;62.70;98977.03;4939583;28;20154;-60
2022/11/29 11:56:38;;;;;;;160.25;89.57;;;;;;;22.29;63.10;98981.19;4956145;28;20054;-60
2022/11/29 11:59:34;;;;;;;164.82;90.15;;;;;;;22.17;63.32;98971.72;4955256;28;20171;-62
2022/11/29 12:02:43;;;;;;;162.43;92.82;;;;;;;22.01;64.04;98974.53;4955210;28;20509;-63
2022/11/29 12:05:32;;;;;;;175.18;90.15;;;;;;;21.85;64.25;98970.25;4955701;28;20071;-63
2022/11/29 12:08:18;;;;;;;175.18;92.32;;;;;;;21.81;64.61;98969.19;4935904;28;20051;-63
2022/11/29 12:11:12;;;;;;;172.70;93.07;;;;;;;21.76;65.08;98967.28;4952587;28;20074;-64
2022/11/29 12:14:04;;;;;;;165.40;96.77;;;;;;;21.58;65.61;98974.22;4953265;28;20292;-65
2022/11/29 12:17:03;;;;;;;191.00;97.03;;;;;;;21.53;65.72;98968.75;4954506;28;20130;-66
2022/11/29 12:19:54;;;;;;;169.52;94.63;;;;;;;21.48;65.88;98966.06;4956991;28;20285;-64
2022/11/29 12:22:58;;;;;;;171.20;95.70;;;;;;;21.41;65.84;98965.53;4962631;28;20724;-63
2022/11/29 12:25:43;;;;;;;184.20;98.28;;;;;;;21.26;66.88;98964.47;4958799;28;20130;-63
2022/11/29 12:28:37;;;;;;;178.70;100.43;;;;;;;21.26;66.96;98963.66;4941900;28;20146;-64
2022/11/29 12:31:58;;;;;;;186.75;99.93;;;;;;;21.24;66.87;98966.66;4948231;28;20158;-63
2022/11/29 12:35:01;;;;;;;176.18;95.45;;;;;;;21.08;66.86;98963.16;4944129;28;20056;-61
2022/11/29 12:38:20;;;;;;;183.00;100.72;;;;;;;21.11;66.71;98972.69;4950338;28;20039;-61
2022/11/29 12:41:39;;;;;;;175.30;99.45;;;;;;;21.15;66.78;98973.78;4950103;28;20050;-57
2022/11/29 12:45:02;;;;;;;178.80;100.95;;;;;;;20.97;67.91;98980.66;4957551;28;20051;-65
2022/11/29 12:48:31;;;;;;;184.95;100.68;;;;;;;20.86;68.40;98985.28;4957652;28;20054;-59
2022/11/29 12:51:27;;;;;;;194.15;100.45;;;;;;;20.70;68.83;98978.25;4956663;28;20057;-61
2022/11/29 12:54:37;;;;;;;188.77;102.72;;;;;;;20.60;69.81;98994.59;4954992;28;20151;-59
2022/11/29 12:58:07;;;;;;;187.52;103.72;;;;;;;20.41;70.52;98991.59;4958456;28;20085;-61
2022/11/29 13:01:10;;;;;;;194.02;100.45;;;;;;;20.36;70.04;98988.84;4959160;28;20082;-60
2022/11/29 13:04:02;;;;;;;207.88;105.28;;;;;;;20.42;70.05;98996.75;4955794;28;20142;-60
2022/11/29 13:07:19;;;;;;;200.68;109.50;;;;;;;20.43;69.67;98998.38;4940240;28;20050;-60
2022/11/29 13:10:11;;;;;;;193.32;107.05;;;;;;;20.30;70.22;99001.66;4940623;28;20083;-61
2022/11/29 13:13:32;;;;;;;200.40;107.32;;;;;;;20.22;71.02;99013.91;4941745;29;20052;-58
2022/11/29 13:16:26;;;;;;;213.35;111.40;;;;;;;20.14;71.57;99017.97;4913349;28;20040;-58
2022/11/29 13:19:46;;;;;;;213.82;113.28;;;;;;;20.13;71.65;99024.50;4940363;28;20055;-55
2022/11/29 13:22:34;;;;;;;217.10;113.15;;;;;;;20.05;72.19;99030.47;4933537;28;20047;-58
2022/11/29 13:25:40;;;;;;;223.07;117.88;;;;;;;20.00;72.28;99035.91;4930384;28;20055;-60